Time;durP1;ratioP1;P1;durP2;ratioP2;P2;SDS_P1;SDS_P2;PMS_P1;PMS_P2;Temp;Humidity;BMP_temperature;BMP_pressure;BME280_temperature;BME280_humidity;BME280_pressure;Samples;Min_cycle;Max_cycle;Signal;HPM_P1;HPM_P2
2023/12/15 00:00:58;;;;;;;34.83;14.38;;;;;;;;;;5045131;28;20033;-61
2023/12/15 00:03:23;;;;;;;33.72;14.82;;;;;;;;;;5040577;28;20049;-61
2023/12/15 00:05:49;;;;;;;38.88;15.73;;;;;;;;;;5042457;28;20100;-61
2023/12/15 00:08:14;;;;;;;32.33;14.52;;;;;;;;;;5039330;28;20081;-61
2023/12/15 00:10:43;;;;;;;37.88;16.10;;;;;;;;;;5046392;28;20387;-61
2023/12/15 00:13:08;;;;;;;38.63;15.35;;;;;;;;;;5035189;28;20030;-63
2023/12/15 00:15:33;;;;;;;34.88;15.77;;;;;;;;;;5028759;28;20092;-61
2023/12/15 00:17:59;;;;;;;39.05;16.38;;;;;;;;;;5036315;28;20077;-62
2023/12/15 00:20:24;;;;;;;34.22;15.00;;;;;;;;;;5044537;28;20044;-60
2023/12/15 00:22:50;;;;;;;33.45;14.98;;;;;;;;;;5046587;28;20095;-61
2023/12/15 00:25:16;;;;;;;34.45;15.65;;;;;;;;;;5035643;28;20029;-60
2023/12/15 00:27:41;;;;;;;35.75;14.65;;;;;;;;;;5044576;28;20033;-62
2023/12/15 00:30:07;;;;;;;35.72;15.35;;;;;;;;;;5045585;28;20552;-61
2023/12/15 00:32:32;;;;;;;32.50;15.40;;;;;;;;;;5028414;28;20279;-60
2023/12/15 00:34:58;;;;;;;31.85;15.48;;;;;;;;;;5048827;28;20079;-61
2023/12/15 00:37:23;;;;;;;34.72;15.38;;;;;;;;;;5048578;28;20037;-61
2023/12/15 00:39:49;;;;;;;35.13;15.98;;;;;;;;;;5052537;28;20649;-62
2023/12/15 00:42:14;;;;;;;34.03;15.20;;;;;;;;;;5044271;28;20029;-61
2023/12/15 00:44:44;;;;;;;33.05;14.98;;;;;;;;;;5052309;28;20464;-61
2023/12/15 00:47:09;;;;;;;33.30;15.05;;;;;;;;;;5034467;28;20030;-63
2023/12/15 00:49:36;;;;;;;30.10;14.13;;;;;;;;;;5022436;28;20032;-62
2023/12/15 00:52:02;;;;;;;33.13;14.68;;;;;;;;;;5041288;28;20061;-61
2023/12/15 00:54:28;;;;;;;31.90;13.98;;;;;;;;;;5043691;28;20067;-61
2023/12/15 00:56:53;;;;;;;32.75;14.68;;;;;;;;;;5035520;28;20460;-61
2023/12/15 00:59:18;;;;;;;31.30;14.55;;;;;;;;;;5033616;28;20034;-60
2023/12/15 01:01:44;;;;;;;32.92;14.77;;;;;;;;;;5041494;28;20060;-61
2023/12/15 01:04:09;;;;;;;28.27;14.57;;;;;;;;;;5044887;28;20431;-61
2023/12/15 01:06:35;;;;;;;30.17;13.93;;;;;;;;;;5040625;28;20021;-61
2023/12/15 01:09:00;;;;;;;30.80;15.05;;;;;;;;;;5046814;28;20033;-61
2023/12/15 01:11:25;;;;;;;30.73;14.48;;;;;;;;;;5050245;28;20081;-60
2023/12/15 01:13:51;;;;;;;30.95;14.00;;;;;;;;;;5035291;28;20056;-60
2023/12/15 01:16:16;;;;;;;28.58;13.88;;;;;;;;;;5035798;28;20029;-61
2023/12/15 01:18:44;;;;;;;34.05;14.90;;;;;;;;;;5047769;28;20114;-61
2023/12/15 01:21:09;;;;;;;31.15;14.60;;;;;;;;;;5018690;28;20404;-61
2023/12/15 01:23:37;;;;;;;28.88;14.48;;;;;;;;;;5042679;28;20025;-61
2023/12/15 01:26:04;;;;;;;29.00;13.48;;;;;;;;;;5041702;28;20029;-64
2023/12/15 01:28:30;;;;;;;27.75;13.70;;;;;;;;;;5031593;28;20036;-61
2023/12/15 01:30:55;;;;;;;29.75;14.45;;;;;;;;;;5051462;28;20056;-60
2023/12/15 01:33:20;;;;;;;37.70;15.13;;;;;;;;;;5047007;28;20122;-62
2023/12/15 01:35:46;;;;;;;27.60;14.43;;;;;;;;;;5050682;28;20033;-62
2023/12/15 01:38:11;;;;;;;35.58;15.43;;;;;;;;;;5044789;28;20448;-60
2023/12/15 01:40:36;;;;;;;28.13;14.55;;;;;;;;;;5037095;28;20255;-63
2023/12/15 01:43:02;;;;;;;31.92;14.25;;;;;;;;;;5024124;28;20042;-60
2023/12/15 01:45:28;;;;;;;31.30;14.35;;;;;;;;;;5032215;28;20029;-62
2023/12/15 01:47:54;;;;;;;29.67;13.73;;;;;;;;;;5033667;28;20044;-62
2023/12/15 01:50:20;;;;;;;30.20;14.73;;;;;;;;;;5023903;28;20118;-60
2023/12/15 01:52:45;;;;;;;31.05;14.50;;;;;;;;;;5032990;28;20029;-60
2023/12/15 01:55:11;;;;;;;29.05;14.13;;;;;;;;;;5033521;28;20440;-60
2023/12/15 01:57:36;;;;;;;30.48;14.18;;;;;;;;;;5016267;28;20037;-60
2023/12/15 02:00:06;;;;;;;30.45;15.30;;;;;;;;;;5024797;28;20392;-61
2023/12/15 02:02:33;;;;;;;29.20;13.90;;;;;;;;;;5022539;28;20034;-61
2023/12/15 02:04:59;;;;;;;31.00;14.82;;;;;;;;;;5020348;28;20034;-62
2023/12/15 02:07:24;;;;;;;31.35;13.75;;;;;;;;;;5017321;28;20228;-62
2023/12/15 02:09:50;;;;;;;37.28;15.43;;;;;;;;;;5013997;28;20429;-62
2023/12/15 02:12:16;;;;;;;30.50;14.07;;;;;;;;;;5012600;28;20504;-63
2023/12/15 02:14:44;;;;;;;29.63;14.10;;;;;;;;;;5025475;28;20132;-61
2023/12/15 02:17:13;;;;;;;35.83;14.60;;;;;;;;;;5033159;28;20059;-62
2023/12/15 02:19:38;;;;;;;32.55;14.40;;;;;;;;;;5045317;28;20491;-61
2023/12/15 02:22:04;;;;;;;32.25;15.13;;;;;;;;;;5049595;28;20040;-61
2023/12/15 02:24:29;;;;;;;33.95;14.63;;;;;;;;;;5050919;28;20043;-62
2023/12/15 02:26:55;;;;;;;30.63;14.65;;;;;;;;;;5048887;28;20139;-61
2023/12/15 02:29:21;;;;;;;33.60;14.93;;;;;;;;;;5045356;28;20057;-61
2023/12/15 02:31:46;;;;;;;32.85;15.30;;;;;;;;;;5032779;28;20072;-62
2023/12/15 02:34:12;;;;;;;32.70;15.38;;;;;;;;;;5032339;28;20434;-62
2023/12/15 02:36:37;;;;;;;34.10;15.82;;;;;;;;;;5048004;28;20441;-62
2023/12/15 02:39:06;;;;;;;36.85;15.13;;;;;;;;;;5047593;28;20497;-63
2023/12/15 02:41:31;;;;;;;34.28;16.02;;;;;;;;;;5046000;28;20072;-62
2023/12/15 02:43:57;;;;;;;36.45;17.17;;;;;;;;;;5044919;28;20069;-61
2023/12/15 02:46:24;;;;;;;34.47;16.25;;;;;;;;;;5025506;28;20033;-59
2023/12/15 02:48:49;;;;;;;31.30;15.85;;;;;;;;;;5026328;28;20104;-62
2023/12/15 02:51:28;;;;;;;32.45;16.58;;;;;;;;;;5016218;28;20175;-61
2023/12/15 02:53:54;;;;;;;33.08;15.70;;;;;;;;;;5031911;28;20515;-61
2023/12/15 02:56:19;;;;;;;36.42;15.68;;;;;;;;;;5031048;28;20045;-61
2023/12/15 02:58:44;;;;;;;33.13;16.55;;;;;;;;;;5031251;28;20028;-60
2023/12/15 03:01:10;;;;;;;32.58;16.30;;;;;;;;;;5032382;28;20079;-61
2023/12/15 03:03:36;;;;;;;29.98;15.30;;;;;;;;;;5031346;28;20033;-62
2023/12/15 03:06:01;;;;;;;34.78;16.13;;;;;;;;;;5030148;28;20148;-62
2023/12/15 03:08:27;;;;;;;31.10;16.45;;;;;;;;;;5011625;28;20109;-62
2023/12/15 03:10:57;;;;;;;34.88;16.58;;;;;;;;;;5026370;28;20506;-60
2023/12/15 03:13:23;;;;;;;32.35;15.27;;;;;;;;;;5032611;28;20040;-62
2023/12/15 03:15:48;;;;;;;36.17;17.17;;;;;;;;;;5016225;28;20030;-60
2023/12/15 03:18:13;;;;;;;36.72;16.50;;;;;;;;;;5012571;28;20049;-62
2023/12/15 03:20:39;;;;;;;35.17;14.75;;;;;;;;;;5029850;28;20042;-62
2023/12/15 03:23:04;;;;;;;30.55;15.85;;;;;;;;;;5031741;28;20021;-60
2023/12/15 03:25:29;;;;;;;34.50;15.25;;;;;;;;;;5030633;28;20112;-62
2023/12/15 03:27:55;;;;;;;29.73;13.80;;;;;;;;;;5031682;28;20033;-61
2023/12/15 03:30:20;;;;;;;40.58;15.95;;;;;;;;;;5027386;28;20387;-61
2023/12/15 03:32:46;;;;;;;33.97;16.20;;;;;;;;;;5028229;28;20120;-61
2023/12/15 03:35:11;;;;;;;29.58;15.13;;;;;;;;;;5030790;28;20017;-62
2023/12/15 03:37:36;;;;;;;32.90;15.75;;;;;;;;;;5027337;28;20056;-61
2023/12/15 03:40:03;;;;;;;34.97;17.20;;;;;;;;;;5010977;28;20535;-63
2023/12/15 03:42:29;;;;;;;35.65;16.52;;;;;;;;;;5010122;28;20117;-62
2023/12/15 03:44:54;;;;;;;37.67;16.77;;;;;;;;;;5010759;28;20057;-63
2023/12/15 03:47:19;;;;;;;34.08;17.40;;;;;;;;;;5015296;28;20108;-63
2023/12/15 03:49:45;;;;;;;43.15;18.20;;;;;;;;;;5014852;28;20037;-64
2023/12/15 03:52:11;;;;;;;37.53;18.60;;;;;;;;;;5016005;28;20368;-63
2023/12/15 03:54:36;;;;;;;37.50;18.58;;;;;;;;;;5030427;28;20021;-62
2023/12/15 03:57:01;;;;;;;39.42;19.52;;;;;;;;;;5031440;28;20463;-62
2023/12/15 03:59:27;;;;;;;40.05;17.55;;;;;;;;;;5027477;28;20038;-61
2023/12/15 04:01:52;;;;;;;39.15;19.52;;;;;;;;;;5028026;28;20030;-62
2023/12/15 04:04:18;;;;;;;39.53;18.75;;;;;;;;;;5025218;28;20038;-63
2023/12/15 04:06:44;;;;;;;42.92;19.67;;;;;;;;;;5010786;28;20029;-62
2023/12/15 04:09:09;;;;;;;42.17;19.45;;;;;;;;;;5023742;28;20091;-63
2023/12/15 04:11:36;;;;;;;42.20;18.88;;;;;;;;;;5029689;28;20048;-62
2023/12/15 04:14:01;;;;;;;37.20;19.02;;;;;;;;;;5030742;28;20037;-62
2023/12/15 04:16:27;;;;;;;46.53;19.55;;;;;;;;;;5016210;28;20044;-61
2023/12/15 04:18:52;;;;;;;43.58;20.15;;;;;;;;;;5031018;28;20029;-61
2023/12/15 04:21:18;;;;;;;43.30;19.70;;;;;;;;;;5029910;28;20435;-62
2023/12/15 04:23:43;;;;;;;41.58;18.52;;;;;;;;;;5030500;28;20121;-61
2023/12/15 04:26:08;;;;;;;44.22;19.98;;;;;;;;;;5031234;28;20025;-63
2023/12/15 04:28:34;;;;;;;45.58;20.40;;;;;;;;;;5030166;28;20486;-62
2023/12/15 04:30:59;;;;;;;46.05;20.52;;;;;;;;;;5023639;28;20037;-61
2023/12/15 04:33:24;;;;;;;43.58;20.00;;;;;;;;;;5022927;28;20079;-61
2023/12/15 04:35:50;;;;;;;45.30;20.23;;;;;;;;;;5028593;28;20026;-62
2023/12/15 04:38:15;;;;;;;47.00;20.30;;;;;;;;;;5014988;28;20034;-62
2023/12/15 04:40:40;;;;;;;50.80;20.10;;;;;;;;;;5012871;28;20046;-61
2023/12/15 04:43:06;;;;;;;51.40;19.98;;;;;;;;;;5011659;28;20037;-61
2023/12/15 04:45:31;;;;;;;53.90;21.67;;;;;;;;;;5010720;28;20069;-61
2023/12/15 04:47:57;;;;;;;49.30;21.33;;;;;;;;;;5011714;28;20029;-63
2023/12/15 04:50:22;;;;;;;53.83;21.45;;;;;;;;;;5011829;28;20121;-62
2023/12/15 04:52:47;;;;;;;57.55;24.75;;;;;;;;;;5010680;28;20057;-62
2023/12/15 04:55:13;;;;;;;59.40;23.50;;;;;;;;;;5011354;28;20034;-62
2023/12/15 04:57:38;;;;;;;54.63;22.05;;;;;;;;;;5010617;28;20529;-60
2023/12/15 05:00:05;;;;;;;53.28;22.08;;;;;;;;;;5011480;28;20033;-60
2023/12/15 05:02:30;;;;;;;58.42;22.05;;;;;;;;;;5010584;28;20403;-60
2023/12/15 05:04:55;;;;;;;45.42;19.23;;;;;;;;;;5011189;28;20472;-60
2023/12/15 05:07:21;;;;;;;59.83;22.45;;;;;;;;;;5011404;28;20096;-60
2023/12/15 05:09:47;;;;;;;53.05;20.45;;;;;;;;;;5010741;28;20577;-60
2023/12/15 05:12:12;;;;;;;48.70;19.38;;;;;;;;;;5011375;28;20034;-61
2023/12/15 05:14:38;;;;;;;42.65;16.83;;;;;;;;;;5010208;28;20528;-60
2023/12/15 05:17:03;;;;;;;51.75;20.40;;;;;;;;;;5011499;28;20530;-60
2023/12/15 05:19:28;;;;;;;54.63;20.10;;;;;;;;;;5012975;28;20030;-60
2023/12/15 05:21:54;;;;;;;57.25;20.90;;;;;;;;;;5014266;28;20026;-60
2023/12/15 05:24:19;;;;;;;55.90;21.40;;;;;;;;;;5014890;28;20044;-60
2023/12/15 05:26:45;;;;;;;56.95;21.60;;;;;;;;;;5014030;28;20465;-60
2023/12/15 05:29:10;;;;;;;54.63;20.25;;;;;;;;;;5014949;28;20427;-61
2023/12/15 05:31:36;;;;;;;53.58;19.63;;;;;;;;;;5013991;28;20034;-60
2023/12/15 05:34:01;;;;;;;55.20;20.85;;;;;;;;;;5014682;28;20033;-60
2023/12/15 05:36:27;;;;;;;56.95;20.90;;;;;;;;;;5014702;28;20061;-60
2023/12/15 05:38:53;;;;;;;72.25;22.20;;;;;;;;;;5013904;28;20152;-60
2023/12/15 05:41:18;;;;;;;58.95;21.58;;;;;;;;;;5014248;28;20111;-60
2023/12/15 05:43:44;;;;;;;53.10;20.10;;;;;;;;;;5013799;28;20038;-60
2023/12/15 05:46:09;;;;;;;72.22;23.08;;;;;;;;;;5014435;28;20030;-61
2023/12/15 05:48:35;;;;;;;60.42;21.65;;;;;;;;;;5013750;28;20030;-60
2023/12/15 05:51:01;;;;;;;60.00;21.45;;;;;;;;;;5014574;28;20482;-62
2023/12/15 05:53:27;;;;;;;65.65;23.65;;;;;;;;;;5014463;28;20053;-61
2023/12/15 05:55:53;;;;;;;72.13;25.05;;;;;;;;;;5013324;28;20192;-62
2023/12/15 05:58:19;;;;;;;63.33;22.35;;;;;;;;;;5014318;28;20465;-61
2023/12/15 06:00:44;;;;;;;65.72;22.23;;;;;;;;;;5013132;28;20033;-60
2023/12/15 06:03:09;;;;;;;71.80;22.95;;;;;;;;;;5014367;28;20029;-60
2023/12/15 06:05:35;;;;;;;68.90;22.67;;;;;;;;;;5013416;28;20038;-60
2023/12/15 06:08:01;;;;;;;73.05;23.27;;;;;;;;;;5014267;28;20026;-61
2023/12/15 06:10:27;;;;;;;69.82;23.33;;;;;;;;;;5014134;28;20041;-63
2023/12/15 06:12:52;;;;;;;80.28;24.30;;;;;;;;;;5013549;28;20112;-62
2023/12/15 06:15:17;;;;;;;70.10;23.33;;;;;;;;;;5013940;28;20396;-62
2023/12/15 06:17:43;;;;;;;72.97;23.70;;;;;;;;;;5013535;28;20033;-61
2023/12/15 06:20:10;;;;;;;86.13;24.08;;;;;;;;;;5013791;28;20053;-61
2023/12/15 06:22:36;;;;;;;77.03;23.83;;;;;;;;;;5013479;28;20033;-61
2023/12/15 06:25:01;;;;;;;81.20;25.73;;;;;;;;;;5014011;28;20026;-61
2023/12/15 06:27:26;;;;;;;77.78;23.60;;;;;;;;;;5013963;28;20476;-62
2023/12/15 06:29:52;;;;;;;84.80;24.05;;;;;;;;;;5012976;28;20029;-62
2023/12/15 06:32:17;;;;;;;76.57;24.52;;;;;;;;;;5013932;28;20034;-61
2023/12/15 06:34:43;;;;;;;79.70;25.15;;;;;;;;;;5012903;28;20030;-61
2023/12/15 06:37:08;;;;;;;80.75;24.42;;;;;;;;;;5013752;28;20062;-62
2023/12/15 06:39:33;;;;;;;81.05;25.20;;;;;;;;;;5013513;28;20488;-61
2023/12/15 06:41:59;;;;;;;79.03;24.00;;;;;;;;;;5012032;28;20030;-63
2023/12/15 06:44:25;;;;;;;87.68;26.90;;;;;;;;;;5013635;28;20366;-62
2023/12/15 06:46:51;;;;;;;82.05;24.48;;;;;;;;;;5012747;28;20137;-62
2023/12/15 06:49:18;;;;;;;83.45;24.40;;;;;;;;;;5013612;28;20476;-63
2023/12/15 06:51:44;;;;;;;82.53;23.88;;;;;;;;;;5012515;28;20038;-63
2023/12/15 06:54:09;;;;;;;92.72;23.65;;;;;;;;;;5013514;28;20368;-63
2023/12/15 06:56:38;;;;;;;92.93;25.08;;;;;;;;;;5013084;28;20052;-61
2023/12/15 06:59:03;;;;;;;88.70;25.02;;;;;;;;;;5013473;28;20109;-62
2023/12/15 07:01:29;;;;;;;97.00;25.55;;;;;;;;;;5013201;28;20440;-63
2023/12/15 07:03:54;;;;;;;83.40;25.10;;;;;;;;;;5012335;28;20084;-63
2023/12/15 07:06:19;;;;;;;88.10;25.45;;;;;;;;;;5013051;28;20496;-62
2023/12/15 07:08:48;;;;;;;84.95;24.92;;;;;;;;;;5012224;28;20038;-62
2023/12/15 07:11:14;;;;;;;90.05;25.67;;;;;;;;;;5013220;28;20076;-63
2023/12/15 07:13:39;;;;;;;90.05;24.77;;;;;;;;;;5012251;28;20026;-62
2023/12/15 07:16:05;;;;;;;87.43;23.05;;;;;;;;;;5012850;28;20033;-62
2023/12/15 07:18:32;;;;;;;88.00;24.00;;;;;;;;;;5012859;28;20030;-64
2023/12/15 07:20:58;;;;;;;85.43;23.95;;;;;;;;;;5011681;28;20042;-61
2023/12/15 07:23:23;;;;;;;93.22;24.25;;;;;;;;;;5012803;28;20033;-62
2023/12/15 07:25:48;;;;;;;99.80;26.65;;;;;;;;;;5011906;28;20096;-62
2023/12/15 07:28:14;;;;;;;88.80;24.90;;;;;;;;;;5012882;28;20379;-62
2023/12/15 07:30:39;;;;;;;109.18;25.50;;;;;;;;;;5011947;28;20357;-61
2023/12/15 07:33:05;;;;;;;107.30;27.38;;;;;;;;;;5012953;28;20029;-63
2023/12/15 07:35:30;;;;;;;100.95;26.67;;;;;;;;;;5012308;28;20372;-63
2023/12/15 07:37:55;;;;;;;101.82;26.80;;;;;;;;;;5011667;28;20482;-64
2023/12/15 07:40:21;;;;;;;122.22;27.35;;;;;;;;;;5012354;28;20038;-62
2023/12/15 07:42:47;;;;;;;118.82;27.55;;;;;;;;;;5010889;28;20041;-63
2023/12/15 07:45:13;;;;;;;107.13;28.45;;;;;;;;;;5012268;28;20026;-63
2023/12/15 07:47:38;;;;;;;107.20;27.45;;;;;;;;;;5011448;28;20052;-61
2023/12/15 07:50:04;;;;;;;89.10;26.15;;;;;;;;;;5012223;28;20037;-63
2023/12/15 07:52:29;;;;;;;110.82;27.23;;;;;;;;;;5012244;28;20484;-63
2023/12/15 07:54:55;;;;;;;102.20;26.85;;;;;;;;;;5011778;28;20029;-63
2023/12/15 07:57:20;;;;;;;109.03;26.70;;;;;;;;;;5012225;28;20049;-63
2023/12/15 07:59:46;;;;;;;101.32;25.98;;;;;;;;;;5011624;28;20105;-64
2023/12/15 08:02:11;;;;;;;114.90;27.13;;;;;;;;;;5012477;28;20350;-62
2023/12/15 08:04:37;;;;;;;111.43;26.55;;;;;;;;;;5011292;28;20354;-63
2023/12/15 08:07:03;;;;;;;132.63;27.48;;;;;;;;;;5011699;28;20117;-63
2023/12/15 08:09:28;;;;;;;106.63;26.23;;;;;;;;;;5012429;28;20128;-63
2023/12/15 08:11:54;;;;;;;121.57;27.65;;;;;;;;;;5011559;28;20037;-63
2023/12/15 08:14:19;;;;;;;121.35;27.80;;;;;;;;;;5012495;28;20036;-61
2023/12/15 08:16:45;;;;;;;109.65;27.02;;;;;;;;;;5011253;28;20029;-62
2023/12/15 08:19:10;;;;;;;108.22;26.50;;;;;;;;;;5012229;28;20384;-63
2023/12/15 08:21:35;;;;;;;106.57;26.67;;;;;;;;;;5012036;28;20050;-62
2023/12/15 08:24:02;;;;;;;99.95;25.80;;;;;;;;;;5010889;28;20077;-61
2023/12/15 08:26:28;;;;;;;107.95;26.45;;;;;;;;;;5011749;28;20038;-62
2023/12/15 08:28:54;;;;;;;120.85;27.75;;;;;;;;;;5011161;28;20151;-62
2023/12/15 08:31:21;;;;;;;114.63;26.73;;;;;;;;;;5011955;28;20045;-62
2023/12/15 08:33:46;;;;;;;104.65;26.17;;;;;;;;;;5010794;28;20431;-61
2023/12/15 08:36:11;;;;;;;112.95;26.85;;;;;;;;;;5011543;28;20033;-62
2023/12/15 08:38:37;;;;;;;99.93;26.23;;;;;;;;;;5011754;28;20026;-62
2023/12/15 08:41:02;;;;;;;107.60;27.02;;;;;;;;;;5011192;28;20021;-62
2023/12/15 08:43:28;;;;;;;96.75;25.15;;;;;;;;;;5011702;28;20374;-62
2023/12/15 08:45:53;;;;;;;107.72;26.40;;;;;;;;;;5010806;28;20496;-62
2023/12/15 08:48:19;;;;;;;106.63;26.77;;;;;;;;;;5012081;28;20036;-62
2023/12/15 08:50:44;;;;;;;103.22;26.10;;;;;;;;;;5009685;28;20034;-61
2023/12/15 08:53:12;;;;;;;96.35;24.48;;;;;;;;;;5012463;28;20498;-62
2023/12/15 08:55:37;;;;;;;110.20;25.40;;;;;;;;;;5015501;28;20457;-62
2023/12/15 08:58:03;;;;;;;104.80;25.65;;;;;;;;;;5014932;28;20026;-64
2023/12/15 09:00:28;;;;;;;88.30;23.60;;;;;;;;;;5014375;28;20133;-62
2023/12/15 09:02:54;;;;;;;82.05;22.83;;;;;;;;;;5014859;28;20507;-62
2023/12/15 09:05:23;;;;;;;102.70;25.35;;;;;;;;;;5015675;28;20037;-62
2023/12/15 09:07:52;;;;;;;91.38;22.38;;;;;;;;;;5014487;28;20388;-62
2023/12/15 09:10:18;;;;;;;76.47;22.50;;;;;;;;;;5015477;28;20043;-64
2023/12/15 09:12:44;;;;;;;82.00;22.67;;;;;;;;;;5015141;28;20041;-61
2023/12/15 09:15:10;;;;;;;78.47;23.98;;;;;;;;;;5014987;28;20465;-64
2023/12/15 09:17:35;;;;;;;86.30;24.42;;;;;;;;;;5015077;28;20033;-64
2023/12/15 09:20:03;;;;;;;76.28;21.83;;;;;;;;;;5013879;28;20464;-63
2023/12/15 09:22:29;;;;;;;82.18;23.90;;;;;;;;;;5013817;28;20034;-63
2023/12/15 09:24:54;;;;;;;85.97;23.80;;;;;;;;;;5014421;28;20434;-63
2023/12/15 09:27:20;;;;;;;75.93;21.55;;;;;;;;;;5014909;28;20192;-63
2023/12/15 09:29:45;;;;;;;81.30;23.55;;;;;;;;;;5014304;28;20030;-61
2023/12/15 09:32:11;;;;;;;78.50;22.80;;;;;;;;;;5014591;28;20528;-64
2023/12/15 09:34:36;;;;;;;72.97;22.77;;;;;;;;;;5014945;28;20026;-64
2023/12/15 09:37:02;;;;;;;73.97;21.85;;;;;;;;;;5014177;28;20100;-64
2023/12/15 09:39:27;;;;;;;71.22;22.38;;;;;;;;;;5014958;28;20109;-64
2023/12/15 09:41:52;;;;;;;71.78;22.95;;;;;;;;;;5014141;28;20076;-64
2023/12/15 09:44:19;;;;;;;74.70;22.42;;;;;;;;;;5014569;28;20082;-65
2023/12/15 09:46:44;;;;;;;78.57;23.77;;;;;;;;;;5014605;28;20033;-62
2023/12/15 09:49:16;;;;;;;62.72;22.95;;;;;;;;;;5014232;28;20034;-63
2023/12/15 09:51:49;;;;;;;77.88;21.60;;;;;;;;;;5014768;28;20034;-65
2023/12/15 09:54:14;;;;;;;68.35;22.45;;;;;;;;;;5014703;28;20045;-62
2023/12/15 09:56:40;;;;;;;68.68;23.48;;;;;;;;;;5014459;28;20022;-64
2023/12/15 09:59:05;;;;;;;72.85;22.92;;;;;;;;;;5013959;28;20250;-62
2023/12/15 10:01:31;;;;;;;74.22;23.35;;;;;;;;;;5014280;28;20025;-62
2023/12/15 10:03:57;;;;;;;81.03;24.40;;;;;;;;;;5012792;28;20026;-62
2023/12/15 10:06:23;;;;;;;78.35;23.92;;;;;;;;;;5014030;28;20385;-64
2023/12/15 10:08:49;;;;;;;75.28;23.75;;;;;;;;;;5013419;28;20042;-62
2023/12/15 10:11:16;;;;;;;76.40;23.85;;;;;;;;;;5014163;28;20045;-62
2023/12/15 10:13:42;;;;;;;76.45;24.15;;;;;;;;;;5014048;28;20034;-62
2023/12/15 10:16:09;;;;;;;70.15;22.92;;;;;;;;;;5013183;28;20091;-62
2023/12/15 10:18:34;;;;;;;76.25;23.45;;;;;;;;;;5013833;28;20033;-63
2023/12/15 10:21:00;;;;;;;72.75;22.05;;;;;;;;;;5012635;28;20050;-61
2023/12/15 10:23:30;;;;;;;61.97;21.75;;;;;;;;;;5013938;28;20030;-62
2023/12/15 10:25:58;;;;;;;66.55;22.33;;;;;;;;;;5013054;28;20472;-62
2023/12/15 10:28:23;;;;;;;70.75;21.73;;;;;;;;;;5013634;28;20041;-62
2023/12/15 10:30:50;;;;;;;70.30;21.90;;;;;;;;;;5013214;28;20030;-62
2023/12/15 10:33:17;;;;;;;71.53;22.88;;;;;;;;;;5013503;28;20077;-62
2023/12/15 10:35:46;;;;;;;63.72;23.02;;;;;;;;;;5013646;28;20131;-62
2023/12/15 10:38:11;;;;;;;72.63;23.60;;;;;;;;;;5012518;28;20069;-62
2023/12/15 10:40:36;;;;;;;65.38;23.48;;;;;;;;;;5013772;28;20062;-61
2023/12/15 10:43:03;;;;;;;69.20;23.77;;;;;;;;;;5012861;28;20084;-62
2023/12/15 10:45:30;;;;;;;67.95;23.85;;;;;;;;;;5013422;28;20112;-62
2023/12/15 10:47:58;;;;;;;61.00;20.83;;;;;;;;;;5012203;28;20065;-62
2023/12/15 10:50:26;;;;;;;66.57;23.88;;;;;;;;;;5013324;28;20041;-62
2023/12/15 10:52:51;;;;;;;69.60;22.42;;;;;;;;;;5012640;28;20030;-61
2023/12/15 10:55:20;;;;;;;66.13;22.67;;;;;;;;;;5013058;28;20032;-62
2023/12/15 10:57:46;;;;;;;68.85;23.05;;;;;;;;;;5013327;28;20109;-62
2023/12/15 11:00:12;;;;;;;69.13;22.30;;;;;;;;;;5012236;28;20029;-62
2023/12/15 11:02:39;;;;;;;61.85;21.63;;;;;;;;;;5012951;28;20109;-62
2023/12/15 11:05:09;;;;;;;68.30;24.23;;;;;;;;;;5012051;28;20044;-61
2023/12/15 11:07:35;;;;;;;67.13;21.83;;;;;;;;;;5012922;28;20109;-62
2023/12/15 11:10:00;;;;;;;62.88;21.00;;;;;;;;;;5012317;28;20038;-62
2023/12/15 11:12:31;;;;;;;65.18;21.77;;;;;;;;;;5012909;28;20045;-61
2023/12/15 11:15:02;;;;;;;63.97;22.20;;;;;;;;;;5012431;28;20437;-62
2023/12/15 11:17:27;;;;;;;;;;;;;;;;;;5012479;28;20041;-62
2023/12/15 11:20:17;;;;;;;54.33;20.08;;;;;;;;;;5012435;28;20340;-62
2023/12/15 11:23:06;;;;;;;57.45;20.00;;;;;;;;;;5011993;28;20041;-61
2023/12/15 11:25:32;;;;;;;66.78;22.05;;;;;;;;;;5012743;28;20385;-62
2023/12/15 11:28:08;;;;;;;64.28;22.70;;;;;;;;;;5012127;28;20038;-61
2023/12/15 11:30:44;;;;;;;71.32;22.58;;;;;;;;;;5012689;28;20034;-62
2023/12/15 11:33:29;;;;;;;70.97;22.95;;;;;;;;;;5011658;28;20033;-61
2023/12/15 11:35:58;;;;;;;65.50;23.40;;;;;;;;;;5011781;28;20040;-61
2023/12/15 11:38:24;;;;;;;65.28;22.55;;;;;;;;;;5012756;28;20476;-64
2023/12/15 11:40:51;;;;;;;66.07;22.73;;;;;;;;;;5012509;28;20033;-61
2023/12/15 11:43:17;;;;;;;60.88;21.27;;;;;;;;;;5011844;28;20416;-62
2023/12/15 11:45:43;;;;;;;62.80;21.80;;;;;;;;;;5012391;28;20065;-61
2023/12/15 11:48:12;;;;;;;65.97;21.23;;;;;;;;;;5010230;28;20036;-62
2023/12/15 11:50:43;;;;;;;59.75;21.08;;;;;;;;;;5012297;28;20029;-61
2023/12/15 11:53:12;;;;;;;56.42;20.67;;;;;;;;;;5011485;28;20034;-61
2023/12/15 11:55:39;;;;;;;57.55;21.73;;;;;;;;;;5012218;28;20436;-61
2023/12/15 11:58:06;;;;;;;61.17;21.42;;;;;;;;;;5011619;28;20450;-61
2023/12/15 12:00:32;;;;;;;60.38;22.38;;;;;;;;;;5012369;28;20179;-61
2023/12/15 12:02:58;;;;;;;58.88;21.20;;;;;;;;;;5011279;28;20520;-60
2023/12/15 12:05:23;;;;;;;64.53;22.58;;;;;;;;;;5012113;28;20142;-61
2023/12/15 12:07:49;;;;;;;56.38;21.88;;;;;;;;;;5011748;28;20056;-61
2023/12/15 12:10:14;;;;;;;63.05;20.45;;;;;;;;;;5011074;28;20060;-60
2023/12/15 12:12:40;;;;;;;59.88;21.13;;;;;;;;;;5011790;28;20045;-61
2023/12/15 12:15:09;;;;;;;64.90;21.90;;;;;;;;;;5011236;28;20065;-60
2023/12/15 12:17:36;;;;;;;61.00;21.88;;;;;;;;;;5011800;28;20072;-61
2023/12/15 12:20:12;;;;;;;58.58;20.73;;;;;;;;;;5010906;28;20042;-60
2023/12/15 12:22:41;;;;;;;62.38;21.38;;;;;;;;;;5011561;28;20026;-61
2023/12/15 12:25:10;;;;;;;58.72;21.52;;;;;;;;;;5011185;28;20034;-61
2023/12/15 12:27:36;;;;;;;62.15;21.20;;;;;;;;;;5012703;28;20034;-62
2023/12/15 12:30:17;;;;;;;61.70;21.83;;;;;;;;;;5015063;28;20480;-62
2023/12/15 12:32:47;;;;;;;59.05;20.95;;;;;;;;;;5015950;28;20068;-62
2023/12/15 12:35:12;;;;;;;60.58;21.08;;;;;;;;;;5015104;28;20029;-62
2023/12/15 12:37:37;;;;;;;51.63;20.10;;;;;;;;;;5015771;28;20152;-62
2023/12/15 12:40:04;;;;;;;63.75;21.45;;;;;;;;;;5014780;28;20030;-62
2023/12/15 12:42:30;;;;;;;61.47;21.80;;;;;;;;;;5014524;28;20117;-61
2023/12/15 12:44:56;;;;;;;66.78;22.40;;;;;;;;;;5015169;28;20034;-61
2023/12/15 12:47:22;;;;;;;57.20;21.95;;;;;;;;;;5015646;28;20026;-61
2023/12/15 12:49:48;;;;;;;57.65;22.70;;;;;;;;;;5015457;28;20038;-61
2023/12/15 12:52:13;;;;;;;64.10;23.38;;;;;;;;;;5015113;28;20519;-62
2023/12/15 12:54:39;;;;;;;61.17;21.60;;;;;;;;;;5015761;28;20034;-62
2023/12/15 12:57:04;;;;;;;62.30;21.23;;;;;;;;;;5014886;28;20024;-61
2023/12/15 12:59:30;;;;;;;56.75;21.30;;;;;;;;;;5015645;28;20383;-61
2023/12/15 13:01:59;;;;;;;57.15;20.10;;;;;;;;;;5015042;28;20052;-62
2023/12/15 13:04:24;;;;;;;56.35;22.02;;;;;;;;;;5014451;28;20380;-61
2023/12/15 13:06:50;;;;;;;53.25;20.45;;;;;;;;;;5014168;28;20033;-61
2023/12/15 13:09:18;;;;;;;53.35;20.42;;;;;;;;;;5014079;28;20411;-61
2023/12/15 13:11:48;;;;;;;51.35;20.17;;;;;;;;;;5015268;28;20171;-62
2023/12/15 13:14:14;;;;;;;58.77;21.97;;;;;;;;;;5014523;28;20030;-62
2023/12/15 13:16:40;;;;;;;55.70;20.17;;;;;;;;;;5015221;28;20109;-61
2023/12/15 13:19:05;;;;;;;55.28;21.05;;;;;;;;;;5014171;28;20037;-61
2023/12/15 13:21:31;;;;;;;60.53;20.35;;;;;;;;;;5014566;28;20444;-61
2023/12/15 13:23:57;;;;;;;47.90;19.20;;;;;;;;;;5014852;28;20028;-62
2023/12/15 13:26:22;;;;;;;53.63;19.80;;;;;;;;;;5014297;28;20026;-62
2023/12/15 13:28:48;;;;;;;53.83;20.40;;;;;;;;;;5014839;28;20029;-62
2023/12/15 13:31:14;;;;;;;53.03;19.25;;;;;;;;;;5013777;28;20038;-61
2023/12/15 13:33:45;;;;;;;54.45;19.08;;;;;;;;;;5014883;28;20495;-61
2023/12/15 13:36:20;;;;;;;47.20;19.52;;;;;;;;;;5014031;28;20033;-62
2023/12/15 13:38:46;;;;;;;47.97;18.35;;;;;;;;;;5013948;28;20535;-62
2023/12/15 13:41:13;;;;;;;50.70;19.63;;;;;;;;;;5012380;28;20113;-62
2023/12/15 13:43:39;;;;;;;50.65;19.58;;;;;;;;;;5014686;28;20038;-62
2023/12/15 13:46:05;;;;;;;47.15;20.30;;;;;;;;;;5013775;28;20026;-61
2023/12/15 13:48:31;;;;;;;53.28;21.90;;;;;;;;;;5014464;28;20091;-62
2023/12/15 13:50:57;;;;;;;54.25;22.15;;;;;;;;;;5014482;28;20034;-62
2023/12/15 13:53:23;;;;;;;54.90;20.45;;;;;;;;;;5013601;28;20168;-62
2023/12/15 13:55:48;;;;;;;51.05;19.52;;;;;;;;;;5014839;28;20037;-62
2023/12/15 13:58:14;;;;;;;54.88;20.13;;;;;;;;;;5013909;28;20036;-62
2023/12/15 14:00:39;;;;;;;52.38;20.05;;;;;;;;;;5014603;28;20113;-62
2023/12/15 14:03:05;;;;;;;47.28;20.05;;;;;;;;;;4996266;28;20049;-61
2023/12/15 14:05:30;;;;;;;51.95;19.90;;;;;;;;;;5014644;28;20054;-62
2023/12/15 14:07:55;;;;;;;47.50;18.48;;;;;;;;;;5014533;28;20093;-62
2023/12/15 14:10:21;;;;;;;53.65;20.02;;;;;;;;;;5011800;28;20050;-61